sensor_id;sensor_type;location;lat;lon;timestamp;P1;durP1;ratioP1;P2;durP2;ratioP2
23670;SDS011;12012;51.998;7.614;2023-02-02T00:01:45;11.02;;;2.97;;
23670;SDS011;12012;51.998;7.614;2023-02-02T00:04:19;15.38;;;2.40;;
23670;SDS011;12012;51.998;7.614;2023-02-02T00:06:47;15.63;;;2.75;;
23670;SDS011;12012;51.998;7.614;2023-02-02T00:09:14;13.68;;;2.20;;
23670;SDS011;12012;51.998;7.614;2023-02-02T00:11:42;19.02;;;2.55;;
23670;SDS011;12012;51.998;7.614;2023-02-02T00:14:09;15.40;;;2.67;;
23670;SDS011;12012;51.998;7.614;2023-02-02T00:19:03;11.27;;;2.38;;
23670;SDS011;12012;51.998;7.614;2023-02-02T00:21:31;19.55;;;3.13;;
23670;SDS011;12012;51.998;7.614;2023-02-02T00:23:57;22.55;;;2.80;;
23670;SDS011;12012;51.998;7.614;2023-02-02T00:26:23;22.33;;;2.72;;
23670;SDS011;12012;51.998;7.614;2023-02-02T00:28:49;13.18;;;2.60;;
23670;SDS011;12012;51.998;7.614;2023-02-02T00:31:15;11.85;;;2.72;;
23670;SDS011;12012;51.998;7.614;2023-02-02T00:33:44;16.13;;;2.33;;
23670;SDS011;12012;51.998;7.614;2023-02-02T00:36:11;16.65;;;2.45;;
23670;SDS011;12012;51.998;7.614;2023-02-02T00:38:36;19.98;;;2.35;;
23670;SDS011;12012;51.998;7.614;2023-02-02T00:41:02;13.18;;;2.10;;
23670;SDS011;12012;51.998;7.614;2023-02-02T00:43:29;12.77;;;2.47;;
23670;SDS011;12012;51.998;7.614;2023-02-02T00:45:54;8.63;;;1.92;;
23670;SDS011;12012;51.998;7.614;2023-02-02T00:48:20;12.80;;;2.03;;
23670;SDS011;12012;51.998;7.614;2023-02-02T00:50:46;11.77;;;2.03;;
23670;SDS011;12012;51.998;7.614;2023-02-02T00:53:12;11.32;;;2.00;;
23670;SDS011;12012;51.998;7.614;2023-02-02T00:55:37;15.23;;;2.92;;
23670;SDS011;12012;51.998;7.614;2023-02-02T00:58:03;12.15;;;2.15;;
23670;SDS011;12012;51.998;7.614;2023-02-02T01:00:28;10.63;;;1.75;;
23670;SDS011;12012;51.998;7.614;2023-02-02T01:02:54;9.57;;;1.95;;
23670;SDS011;12012;51.998;7.614;2023-02-02T01:05:20;14.48;;;2.08;;
23670;SDS011;12012;51.998;7.614;2023-02-02T01:07:46;11.85;;;1.70;;
23670;SDS011;12012;51.998;7.614;2023-02-02T01:10:15;13.55;;;2.00;;
23670;SDS011;12012;51.998;7.614;2023-02-02T01:12:42;9.73;;;2.00;;
23670;SDS011;12012;51.998;7.614;2023-02-02T01:15:08;17.30;;;2.42;;
23670;SDS011;12012;51.998;7.614;2023-02-02T01:17:35;16.35;;;2.10;;
23670;SDS011;12012;51.998;7.614;2023-02-02T01:20:00;10.63;;;1.83;;
23670;SDS011;12012;51.998;7.614;2023-02-02T01:22:26;8.77;;;2.03;;
23670;SDS011;12012;51.998;7.614;2023-02-02T01:24:51;15.07;;;2.33;;
23670;SDS011;12012;51.998;7.614;2023-02-02T01:27:17;15.30;;;2.85;;
23670;SDS011;12012;51.998;7.614;2023-02-02T01:29:43;11.57;;;2.55;;
23670;SDS011;12012;51.998;7.614;2023-02-02T01:32:08;12.43;;;2.25;;
23670;SDS011;12012;51.998;7.614;2023-02-02T01:34:34;16.33;;;3.03;;
23670;SDS011;12012;51.998;7.614;2023-02-02T01:37:00;13.18;;;2.35;;
23670;SDS011;12012;51.998;7.614;2023-02-02T01:39:26;19.70;;;2.72;;
23670;SDS011;12012;51.998;7.614;2023-02-02T01:41:52;13.68;;;3.40;;
23670;SDS011;12012;51.998;7.614;2023-02-02T01:47:22;19.80;;;2.53;;
23670;SDS011;12012;51.998;7.614;2023-02-02T01:49:51;18.08;;;3.30;;
23670;SDS011;12012;51.998;7.614;2023-02-02T01:52:18;14.80;;;3.08;;
23670;SDS011;12012;51.998;7.614;2023-02-02T01:54:51;18.58;;;3.78;;
23670;SDS011;12012;51.998;7.614;2023-02-02T01:57:23;21.40;;;3.40;;
23670;SDS011;12012;51.998;7.614;2023-02-02T01:59:53;15.63;;;3.13;;
23670;SDS011;12012;51.998;7.614;2023-02-02T02:02:20;18.13;;;3.42;;
23670;SDS011;12012;51.998;7.614;2023-02-02T02:04:47;23.17;;;4.30;;
23670;SDS011;12012;51.998;7.614;2023-02-02T02:07:14;22.77;;;4.28;;
23670;SDS011;12012;51.998;7.614;2023-02-02T02:09:40;22.58;;;4.30;;
23670;SDS011;12012;51.998;7.614;2023-02-02T02:12:12;22.17;;;4.88;;
23670;SDS011;12012;51.998;7.614;2023-02-02T02:14:40;21.00;;;4.15;;
23670;SDS011;12012;51.998;7.614;2023-02-02T02:31:55;23.75;;;4.95;;
23670;SDS011;12012;51.998;7.614;2023-02-02T02:37:31;23.30;;;4.47;;
23670;SDS011;12012;51.998;7.614;2023-02-02T02:40:26;22.83;;;4.78;;
23670;SDS011;12012;51.998;7.614;2023-02-02T02:43:05;25.52;;;4.90;;
23670;SDS011;12012;51.998;7.614;2023-02-02T02:45:39;20.15;;;4.78;;
23670;SDS011;12012;51.998;7.614;2023-02-02T02:48:08;19.63;;;4.35;;
23670;SDS011;12012;51.998;7.614;2023-02-02T02:50:34;29.00;;;4.57;;
23670;SDS011;12012;51.998;7.614;2023-02-02T02:53:04;26.90;;;3.92;;
23670;SDS011;12012;51.998;7.614;2023-02-02T02:56:18;23.87;;;4.57;;
23670;SDS011;12012;51.998;7.614;2023-02-02T03:02:30;19.98;;;4.80;;
23670;SDS011;12012;51.998;7.614;2023-02-02T03:07:34;24.83;;;4.68;;
23670;SDS011;12012;51.998;7.614;2023-02-02T03:10:21;20.42;;;4.88;;
23670;SDS011;12012;51.998;7.614;2023-02-02T03:12:50;29.17;;;6.07;;
23670;SDS011;12012;51.998;7.614;2023-02-02T03:15:16;21.38;;;4.93;;
23670;SDS011;12012;51.998;7.614;2023-02-02T03:17:43;29.48;;;5.95;;
23670;SDS011;12012;51.998;7.614;2023-02-02T03:20:11;24.67;;;5.60;;
23670;SDS011;12012;51.998;7.614;2023-02-02T03:22:37;25.77;;;5.85;;
23670;SDS011;12012;51.998;7.614;2023-02-02T03:25:03;22.50;;;5.75;;
23670;SDS011;12012;51.998;7.614;2023-02-02T03:27:30;28.35;;;5.57;;
23670;SDS011;12012;51.998;7.614;2023-02-02T03:29:56;25.92;;;6.30;;
23670;SDS011;12012;51.998;7.614;2023-02-02T03:32:22;18.75;;;5.03;;
23670;SDS011;12012;51.998;7.614;2023-02-02T03:34:48;26.95;;;5.78;;
23670;SDS011;12012;51.998;7.614;2023-02-02T03:37:13;33.65;;;5.75;;
23670;SDS011;12012;51.998;7.614;2023-02-02T03:39:39;32.38;;;7.03;;
23670;SDS011;12012;51.998;7.614;2023-02-02T03:42:04;29.05;;;6.25;;
23670;SDS011;12012;51.998;7.614;2023-02-02T03:44:30;31.35;;;6.20;;
23670;SDS011;12012;51.998;7.614;2023-02-02T03:46:55;24.52;;;6.28;;
23670;SDS011;12012;51.998;7.614;2023-02-02T03:49:21;25.75;;;6.20;;
23670;SDS011;12012;51.998;7.614;2023-02-02T03:51:46;22.52;;;5.05;;
23670;SDS011;12012;51.998;7.614;2023-02-02T03:54:12;29.63;;;6.47;;
23670;SDS011;12012;51.998;7.614;2023-02-02T03:56:39;25.58;;;5.25;;
23670;SDS011;12012;51.998;7.614;2023-02-02T03:59:05;27.17;;;6.30;;
23670;SDS011;12012;51.998;7.614;2023-02-02T04:01:30;24.73;;;5.38;;
23670;SDS011;12012;51.998;7.614;2023-02-02T04:03:56;24.05;;;6.25;;
23670;SDS011;12012;51.998;7.614;2023-02-02T04:06:22;31.23;;;6.00;;
23670;SDS011;12012;51.998;7.614;2023-02-02T04:08:48;21.75;;;5.57;;
23670;SDS011;12012;51.998;7.614;2023-02-02T04:11:14;23.40;;;5.35;;
23670;SDS011;12012;51.998;7.614;2023-02-02T04:13:41;26.40;;;5.55;;
23670;SDS011;12012;51.998;7.614;2023-02-02T04:16:07;27.63;;;5.70;;
23670;SDS011;12012;51.998;7.614;2023-02-02T04:18:33;21.45;;;5.30;;
23670;SDS011;12012;51.998;7.614;2023-02-02T04:21:01;22.77;;;5.55;;
23670;SDS011;12012;51.998;7.614;2023-02-02T04:23:27;30.98;;;6.93;;
23670;SDS011;12012;51.998;7.614;2023-02-02T04:25:53;27.48;;;6.85;;
23670;SDS011;12012;51.998;7.614;2023-02-02T04:28:19;25.08;;;7.60;;
23670;SDS011;12012;51.998;7.614;2023-02-02T04:30:47;33.20;;;7.25;;
23670;SDS011;12012;51.998;7.614;2023-02-02T04:33:13;24.92;;;6.82;;
23670;SDS011;12012;51.998;7.614;2023-02-02T04:35:39;24.90;;;7.28;;
23670;SDS011;12012;51.998;7.614;2023-02-02T04:38:06;31.67;;;7.47;;
23670;SDS011;12012;51.998;7.614;2023-02-02T04:40:31;27.92;;;8.23;;
23670;SDS011;12012;51.998;7.614;2023-02-02T04:42:57;25.45;;;8.70;;
23670;SDS011;12012;51.998;7.614;2023-02-02T04:45:22;30.08;;;7.20;;
23670;SDS011;12012;51.998;7.614;2023-02-02T04:47:49;27.35;;;7.50;;
23670;SDS011;12012;51.998;7.614;2023-02-02T04:50:14;30.45;;;7.10;;
23670;SDS011;12012;51.998;7.614;2023-02-02T04:52:40;22.20;;;6.70;;
23670;SDS011;12012;51.998;7.614;2023-02-02T04:55:06;20.73;;;7.13;;
23670;SDS011;12012;51.998;7.614;2023-02-02T04:57:32;25.70;;;6.38;;
23670;SDS011;12012;51.998;7.614;2023-02-02T04:59:58;22.55;;;6.28;;
23670;SDS011;12012;51.998;7.614;2023-02-02T05:02:23;19.58;;;6.72;;
23670;SDS011;12012;51.998;7.614;2023-02-02T05:04:49;25.13;;;5.97;;
23670;SDS011;12012;51.998;7.614;2023-02-02T05:07:14;22.35;;;6.65;;
23670;SDS011;12012;51.998;7.614;2023-02-02T05:09:40;15.18;;;5.43;;
23670;SDS011;12012;51.998;7.614;2023-02-02T05:12:05;23.92;;;6.32;;
23670;SDS011;12012;51.998;7.614;2023-02-02T05:14:31;21.92;;;6.05;;
23670;SDS011;12012;51.998;7.614;2023-02-02T05:16:57;17.55;;;5.93;;
23670;SDS011;12012;51.998;7.614;2023-02-02T05:19:22;20.63;;;6.75;;
23670;SDS011;12012;51.998;7.614;2023-02-02T05:21:48;26.27;;;6.53;;
23670;SDS011;12012;51.998;7.614;2023-02-02T05:24:14;22.58;;;6.47;;
23670;SDS011;12012;51.998;7.614;2023-02-02T05:26:39;22.83;;;6.43;;
23670;SDS011;12012;51.998;7.614;2023-02-02T05:29:05;21.27;;;5.80;;
23670;SDS011;12012;51.998;7.614;2023-02-02T05:31:33;18.42;;;7.00;;
23670;SDS011;12012;51.998;7.614;2023-02-02T05:33:59;14.82;;;5.68;;
23670;SDS011;12012;51.998;7.614;2023-02-02T05:36:25;20.90;;;8.13;;
23670;SDS011;12012;51.998;7.614;2023-02-02T05:38:50;18.23;;;7.05;;
23670;SDS011;12012;51.998;7.614;2023-02-02T05:41:16;20.48;;;7.35;;
23670;SDS011;12012;51.998;7.614;2023-02-02T05:43:41;18.67;;;6.88;;
23670;SDS011;12012;51.998;7.614;2023-02-02T05:46:07;24.45;;;7.55;;
23670;SDS011;12012;51.998;7.614;2023-02-02T05:48:32;20.63;;;7.10;;
23670;SDS011;12012;51.998;7.614;2023-02-02T05:51:05;16.58;;;6.68;;
23670;SDS011;12012;51.998;7.614;2023-02-02T05:53:39;16.42;;;5.65;;
23670;SDS011;12012;51.998;7.614;2023-02-02T05:56:05;15.38;;;6.15;;
23670;SDS011;12012;51.998;7.614;2023-02-02T05:58:30;19.17;;;6.10;;
23670;SDS011;12012;51.998;7.614;2023-02-02T06:00:56;16.02;;;5.63;;
23670;SDS011;12012;51.998;7.614;2023-02-02T06:03:21;13.07;;;5.20;;
23670;SDS011;12012;51.998;7.614;2023-02-02T06:05:47;10.82;;;5.47;;
23670;SDS011;12012;51.998;7.614;2023-02-02T06:08:13;13.40;;;5.32;;
23670;SDS011;12012;51.998;7.614;2023-02-02T06:10:39;16.27;;;5.13;;
23670;SDS011;12012;51.998;7.614;2023-02-02T06:13:05;14.93;;;4.95;;
23670;SDS011;12012;51.998;7.614;2023-02-02T06:15:31;10.05;;;4.40;;
23670;SDS011;12012;51.998;7.614;2023-02-02T06:17:58;9.57;;;4.65;;
23670;SDS011;12012;51.998;7.614;2023-02-02T06:20:24;15.82;;;5.20;;
23670;SDS011;12012;51.998;7.614;2023-02-02T06:22:49;9.48;;;5.28;;
23670;SDS011;12012;51.998;7.614;2023-02-02T06:25:15;12.68;;;5.75;;
23670;SDS011;12012;51.998;7.614;2023-02-02T06:27:41;8.50;;;4.95;;
23670;SDS011;12012;51.998;7.614;2023-02-02T06:30:09;11.43;;;5.68;;
23670;SDS011;12012;51.998;7.614;2023-02-02T06:32:35;10.52;;;5.45;;
23670;SDS011;12012;51.998;7.614;2023-02-02T06:35:02;12.18;;;6.28;;
23670;SDS011;12012;51.998;7.614;2023-02-02T06:37:27;11.02;;;5.57;;
23670;SDS011;12012;51.998;7.614;2023-02-02T06:39:54;14.23;;;6.43;;
23670;SDS011;12012;51.998;7.614;2023-02-02T06:42:19;12.80;;;6.50;;
23670;SDS011;12012;51.998;7.614;2023-02-02T06:44:45;9.65;;;5.00;;
23670;SDS011;12012;51.998;7.614;2023-02-02T06:47:10;11.70;;;5.60;;
23670;SDS011;12012;51.998;7.614;2023-02-02T06:49:36;13.63;;;6.53;;
23670;SDS011;12012;51.998;7.614;2023-02-02T06:52:01;9.40;;;5.05;;
23670;SDS011;12012;51.998;7.614;2023-02-02T06:54:27;8.40;;;4.20;;
23670;SDS011;12012;51.998;7.614;2023-02-02T06:56:52;9.07;;;4.90;;
23670;SDS011;12012;51.998;7.614;2023-02-02T06:59:19;5.25;;;3.95;;
23670;SDS011;12012;51.998;7.614;2023-02-02T07:01:47;9.13;;;5.22;;
23670;SDS011;12012;51.998;7.614;2023-02-02T07:04:15;12.82;;;6.00;;
23670;SDS011;12012;51.998;7.614;2023-02-02T07:06:41;11.73;;;6.35;;
23670;SDS011;12012;51.998;7.614;2023-02-02T07:09:07;16.95;;;8.15;;
23670;SDS011;12012;51.998;7.614;2023-02-02T07:11:33;11.25;;;6.20;;
23670;SDS011;12012;51.998;7.614;2023-02-02T07:14:00;11.45;;;4.97;;
23670;SDS011;12012;51.998;7.614;2023-02-02T07:16:27;11.50;;;4.68;;
23670;SDS011;12012;51.998;7.614;2023-02-02T07:18:52;10.05;;;3.65;;
23670;SDS011;12012;51.998;7.614;2023-02-02T07:21:19;11.13;;;3.75;;
23670;SDS011;12012;51.998;7.614;2023-02-02T07:23:46;15.40;;;3.85;;
23670;SDS011;12012;51.998;7.614;2023-02-02T07:26:12;10.23;;;3.40;;
23670;SDS011;12012;51.998;7.614;2023-02-02T07:28:39;8.40;;;3.55;;
23670;SDS011;12012;51.998;7.614;2023-02-02T07:31:38;10.48;;;2.78;;
23670;SDS011;12012;51.998;7.614;2023-02-02T07:33:57;10.60;;;2.95;;
23670;SDS011;12012;51.998;7.614;2023-02-02T07:36:23;11.75;;;3.30;;
23670;SDS011;12012;51.998;7.614;2023-02-02T07:38:49;9.77;;;2.97;;
23670;SDS011;12012;51.998;7.614;2023-02-02T07:41:21;14.55;;;3.55;;
23670;SDS011;12012;51.998;7.614;2023-02-02T07:43:47;9.60;;;2.60;;
23670;SDS011;12012;51.998;7.614;2023-02-02T07:46:14;9.27;;;2.53;;
23670;SDS011;12012;51.998;7.614;2023-02-02T07:48:41;13.30;;;3.38;;
23670;SDS011;12012;51.998;7.614;2023-02-02T07:51:08;12.77;;;3.05;;
23670;SDS011;12012;51.998;7.614;2023-02-02T07:53:36;8.18;;;2.80;;
23670;SDS011;12012;51.998;7.614;2023-02-02T07:56:09;13.98;;;3.25;;
23670;SDS011;12012;51.998;7.614;2023-02-02T07:58:39;11.43;;;2.53;;
23670;SDS011;12012;51.998;7.614;2023-02-02T08:01:06;10.35;;;2.78;;
23670;SDS011;12012;51.998;7.614;2023-02-02T08:03:33;11.23;;;3.20;;
23670;SDS011;12012;51.998;7.614;2023-02-02T08:06:00;12.25;;;3.28;;
23670;SDS011;12012;51.998;7.614;2023-02-02T08:08:32;9.55;;;2.60;;
23670;SDS011;12012;51.998;7.614;2023-02-02T08:10:57;12.57;;;3.33;;
23670;SDS011;12012;51.998;7.614;2023-02-02T08:13:23;11.18;;;2.88;;
23670;SDS011;12012;51.998;7.614;2023-02-02T08:15:48;10.63;;;3.05;;
23670;SDS011;12012;51.998;7.614;2023-02-02T08:18:14;5.78;;;2.17;;
23670;SDS011;12012;51.998;7.614;2023-02-02T08:20:40;15.57;;;3.45;;
23670;SDS011;12012;51.998;7.614;2023-02-02T08:23:06;7.53;;;2.58;;
23670;SDS011;12012;51.998;7.614;2023-02-02T08:25:37;6.55;;;1.90;;
23670;SDS011;12012;51.998;7.614;2023-02-02T08:28:03;10.50;;;2.45;;
23670;SDS011;12012;51.998;7.614;2023-02-02T08:30:30;8.30;;;2.50;;
23670;SDS011;12012;51.998;7.614;2023-02-02T08:32:55;8.73;;;2.42;;
23670;SDS011;12012;51.998;7.614;2023-02-02T08:35:21;7.75;;;2.65;;
23670;SDS011;12012;51.998;7.614;2023-02-02T08:37:47;11.52;;;2.47;;
23670;SDS011;12012;51.998;7.614;2023-02-02T08:40:13;10.27;;;2.70;;
23670;SDS011;12012;51.998;7.614;2023-02-02T08:42:39;9.30;;;2.53;;
23670;SDS011;12012;51.998;7.614;2023-02-02T08:45:04;6.93;;;2.22;;
23670;SDS011;12012;51.998;7.614;2023-02-02T08:47:30;8.38;;;2.20;;
23670;SDS011;12012;51.998;7.614;2023-02-02T08:49:56;11.98;;;2.33;;
23670;SDS011;12012;51.998;7.614;2023-02-02T08:52:22;7.72;;;2.35;;
23670;SDS011;12012;51.998;7.614;2023-02-02T08:54:47;9.38;;;2.08;;
23670;SDS011;12012;51.998;7.614;2023-02-02T08:57:13;7.05;;;1.90;;
23670;SDS011;12012;51.998;7.614;2023-02-02T08:59:38;8.35;;;2.05;;
23670;SDS011;12012;51.998;7.614;2023-02-02T09:02:04;5.82;;;1.95;;
23670;SDS011;12012;51.998;7.614;2023-02-02T09:04:29;8.60;;;2.00;;
23670;SDS011;12012;51.998;7.614;2023-02-02T09:06:55;11.32;;;2.08;;
23670;SDS011;12012;51.998;7.614;2023-02-02T09:09:20;7.25;;;2.05;;
23670;SDS011;12012;51.998;7.614;2023-02-02T09:11:46;6.05;;;1.85;;
23670;SDS011;12012;51.998;7.614;2023-02-02T09:14:12;10.85;;;2.45;;
23670;SDS011;12012;51.998;7.614;2023-02-02T09:16:38;5.63;;;2.17;;
23670;SDS011;12012;51.998;7.614;2023-02-02T09:19:04;5.57;;;1.50;;
23670;SDS011;12012;51.998;7.614;2023-02-02T09:21:30;11.85;;;2.30;;
23670;SDS011;12012;51.998;7.614;2023-02-02T09:24:01;10.10;;;1.83;;
23670;SDS011;12012;51.998;7.614;2023-02-02T09:26:30;6.55;;;1.60;;
23670;SDS011;12012;51.998;7.614;2023-02-02T09:29:00;6.45;;;1.58;;
23670;SDS011;12012;51.998;7.614;2023-02-02T09:31:27;6.45;;;1.55;;
23670;SDS011;12012;51.998;7.614;2023-02-02T09:33:53;6.18;;;1.85;;
23670;SDS011;12012;51.998;7.614;2023-02-02T09:36:20;5.63;;;1.50;;
23670;SDS011;12012;51.998;7.614;2023-02-02T09:38:47;4.25;;;1.40;;
23670;SDS011;12012;51.998;7.614;2023-02-02T09:47:21;4.22;;;1.50;;
23670;SDS011;12012;51.998;7.614;2023-02-02T09:49:59;6.65;;;2.60;;
23670;SDS011;12012;51.998;7.614;2023-02-02T09:53:14;6.97;;;2.53;;
23670;SDS011;12012;51.998;7.614;2023-02-02T09:55:34;5.95;;;2.40;;
23670;SDS011;12012;51.998;7.614;2023-02-02T09:58:13;5.95;;;3.10;;
23670;SDS011;12012;51.998;7.614;2023-02-02T10:00:50;5.78;;;2.45;;
23670;SDS011;12012;51.998;7.614;2023-02-02T10:03:32;4.45;;;2.08;;
23670;SDS011;12012;51.998;7.614;2023-02-02T10:22:46;4.07;;;2.63;;
23670;SDS011;12012;51.998;7.614;2023-02-02T10:25:13;8.27;;;2.83;;
23670;SDS011;12012;51.998;7.614;2023-02-02T10:27:40;7.47;;;2.80;;
23670;SDS011;12012;51.998;7.614;2023-02-02T10:30:15;8.73;;;4.30;;
23670;SDS011;12012;51.998;7.614;2023-02-02T10:32:47;8.45;;;3.55;;
23670;SDS011;12012;51.998;7.614;2023-02-02T10:46:34;6.80;;;4.35;;
23670;SDS011;12012;51.998;7.614;2023-02-02T10:49:23;9.82;;;3.92;;
23670;SDS011;12012;51.998;7.614;2023-02-02T10:51:53;10.95;;;4.30;;
23670;SDS011;12012;51.998;7.614;2023-02-02T10:57:32;6.63;;;3.63;;
23670;SDS011;12012;51.998;7.614;2023-02-02T11:02:43;10.82;;;4.07;;
23670;SDS011;12012;51.998;7.614;2023-02-02T11:05:12;11.18;;;5.35;;
23670;SDS011;12012;51.998;7.614;2023-02-02T11:08:08;9.02;;;4.53;;
23670;SDS011;12012;51.998;7.614;2023-02-02T11:10:40;8.30;;;4.05;;
23670;SDS011;12012;51.998;7.614;2023-02-02T11:13:09;6.72;;;3.30;;
23670;SDS011;12012;51.998;7.614;2023-02-02T11:15:43;8.75;;;3.88;;
23670;SDS011;12012;51.998;7.614;2023-02-02T11:18:12;13.82;;;4.63;;
23670;SDS011;12012;51.998;7.614;2023-02-02T11:20:58;10.40;;;4.38;;
23670;SDS011;12012;51.998;7.614;2023-02-02T11:23:25;4.97;;;2.63;;
23670;SDS011;12012;51.998;7.614;2023-02-02T11:25:55;7.80;;;3.42;;
23670;SDS011;12012;51.998;7.614;2023-02-02T11:28:24;7.88;;;4.28;;
23670;SDS011;12012;51.998;7.614;2023-02-02T11:30:54;10.25;;;3.72;;
23670;SDS011;12012;51.998;7.614;2023-02-02T11:33:28;7.32;;;3.38;;
23670;SDS011;12012;51.998;7.614;2023-02-02T11:35:58;8.32;;;3.50;;
23670;SDS011;12012;51.998;7.614;2023-02-02T11:38:26;8.88;;;3.25;;
23670;SDS011;12012;51.998;7.614;2023-02-02T11:41:05;7.20;;;3.28;;
23670;SDS011;12012;51.998;7.614;2023-02-02T11:43:38;8.98;;;2.70;;
23670;SDS011;12012;51.998;7.614;2023-02-02T11:46:18;9.23;;;3.03;;
23670;SDS011;12012;51.998;7.614;2023-02-02T11:49:03;7.70;;;2.70;;
23670;SDS011;12012;51.998;7.614;2023-02-02T11:51:37;5.28;;;2.38;;
23670;SDS011;12012;51.998;7.614;2023-02-02T11:54:21;8.48;;;3.08;;
23670;SDS011;12012;51.998;7.614;2023-02-02T11:56:53;8.40;;;2.72;;
23670;SDS011;12012;51.998;7.614;2023-02-02T12:02:06;8.15;;;2.53;;
23670;SDS011;12012;51.998;7.614;2023-02-02T12:04:40;8.85;;;2.40;;
23670;SDS011;12012;51.998;7.614;2023-02-02T12:07:21;6.63;;;2.00;;
23670;SDS011;12012;51.998;7.614;2023-02-02T12:09:48;4.97;;;2.35;;
23670;SDS011;12012;51.998;7.614;2023-02-02T12:17:32;6.53;;;2.35;;
23670;SDS011;12012;51.998;7.614;2023-02-02T12:23:15;7.35;;;3.08;;
23670;SDS011;12012;51.998;7.614;2023-02-02T12:25:58;6.90;;;3.35;;
23670;SDS011;12012;51.998;7.614;2023-02-02T12:31:45;6.75;;;2.40;;
23670;SDS011;12012;51.998;7.614;2023-02-02T12:37:46;10.52;;;3.22;;
23670;SDS011;12012;51.998;7.614;2023-02-02T12:46:18;10.18;;;2.75;;
23670;SDS011;12012;51.998;7.614;2023-02-02T13:08:45;8.25;;;2.20;;
23670;SDS011;12012;51.998;7.614;2023-02-02T13:11:19;6.55;;;2.15;;
23670;SDS011;12012;51.998;7.614;2023-02-02T13:16:43;8.15;;;2.83;;
23670;SDS011;12012;51.998;7.614;2023-02-02T13:19:14;10.88;;;2.83;;
23670;SDS011;12012;51.998;7.614;2023-02-02T13:21:57;10.02;;;2.65;;
23670;SDS011;12012;51.998;7.614;2023-02-02T13:24:27;9.25;;;2.80;;
23670;SDS011;12012;51.998;7.614;2023-02-02T13:26:55;11.48;;;3.03;;
23670;SDS011;12012;51.998;7.614;2023-02-02T13:29:29;7.32;;;2.63;;
23670;SDS011;12012;51.998;7.614;2023-02-02T13:32:06;9.57;;;2.33;;
23670;SDS011;12012;51.998;7.614;2023-02-02T13:37:19;11.48;;;3.28;;
23670;SDS011;12012;51.998;7.614;2023-02-02T13:43:04;11.02;;;4.13;;
23670;SDS011;12012;51.998;7.614;2023-02-02T13:50:50;12.02;;;5.97;;
23670;SDS011;12012;51.998;7.614;2023-02-02T13:53:30;11.82;;;5.47;;
23670;SDS011;12012;51.998;7.614;2023-02-02T13:59:06;10.05;;;5.05;;
23670;SDS011;12012;51.998;7.614;2023-02-02T14:01:49;10.50;;;4.60;;
23670;SDS011;12012;51.998;7.614;2023-02-02T14:04:23;9.38;;;5.28;;
23670;SDS011;12012;51.998;7.614;2023-02-02T14:09:23;15.30;;;6.20;;
23670;SDS011;12012;51.998;7.614;2023-02-02T14:11:54;11.90;;;5.80;;
23670;SDS011;12012;51.998;7.614;2023-02-02T14:14:23;8.15;;;5.32;;
23670;SDS011;12012;51.998;7.614;2023-02-02T14:17:06;13.68;;;5.68;;
23670;SDS011;12012;51.998;7.614;2023-02-02T14:20:00;14.60;;;6.30;;
23670;SDS011;12012;51.998;7.614;2023-02-02T14:22:47;8.40;;;5.63;;
23670;SDS011;12012;51.998;7.614;2023-02-02T14:26:01;10.02;;;6.72;;
23670;SDS011;12012;51.998;7.614;2023-02-02T14:28:08;11.80;;;6.55;;
23670;SDS011;12012;51.998;7.614;2023-02-02T14:30:36;10.93;;;6.57;;
23670;SDS011;12012;51.998;7.614;2023-02-02T14:38:21;9.98;;;6.00;;
23670;SDS011;12012;51.998;7.614;2023-02-02T14:41:30;9.57;;;6.35;;
23670;SDS011;12012;51.998;7.614;2023-02-02T14:44:33;9.05;;;6.60;;
23670;SDS011;12012;51.998;7.614;2023-02-02T14:47:01;12.02;;;8.00;;
23670;SDS011;12012;51.998;7.614;2023-02-02T14:49:30;12.68;;;8.18;;
23670;SDS011;12012;51.998;7.614;2023-02-02T14:51:59;15.23;;;9.32;;
23670;SDS011;12012;51.998;7.614;2023-02-02T14:54:34;13.35;;;9.02;;
23670;SDS011;12012;51.998;7.614;2023-02-02T14:57:17;14.90;;;8.80;;
23670;SDS011;12012;51.998;7.614;2023-02-02T14:59:44;10.75;;;7.32;;
23670;SDS011;12012;51.998;7.614;2023-02-02T15:04:40;13.70;;;10.07;;
23670;SDS011;12012;51.998;7.614;2023-02-02T15:10:14;15.02;;;9.77;;
23670;SDS011;12012;51.998;7.614;2023-02-02T15:13:09;12.05;;;8.52;;
23670;SDS011;12012;51.998;7.614;2023-02-02T15:15:38;12.18;;;7.95;;
23670;SDS011;12012;51.998;7.614;2023-02-02T15:18:27;17.05;;;11.63;;
23670;SDS011;12012;51.998;7.614;2023-02-02T15:20:57;17.20;;;11.65;;
23670;SDS011;12012;51.998;7.614;2023-02-02T15:23:41;23.95;;;15.20;;
23670;SDS011;12012;51.998;7.614;2023-02-02T15:26:13;23.17;;;13.23;;
23670;SDS011;12012;51.998;7.614;2023-02-02T15:28:54;22.73;;;13.63;;
23670;SDS011;12012;51.998;7.614;2023-02-02T15:36:46;21.05;;;11.75;;
23670;SDS011;12012;51.998;7.614;2023-02-02T15:41:53;19.10;;;12.25;;
23670;SDS011;12012;51.998;7.614;2023-02-02T15:44:46;18.83;;;11.02;;
23670;SDS011;12012;51.998;7.614;2023-02-02T15:47:14;22.45;;;12.02;;
23670;SDS011;12012;51.998;7.614;2023-02-02T15:49:43;21.27;;;11.15;;
23670;SDS011;12012;51.998;7.614;2023-02-02T15:52:11;19.23;;;11.05;;
23670;SDS011;12012;51.998;7.614;2023-02-02T15:54:49;19.02;;;11.10;;
23670;SDS011;12012;51.998;7.614;2023-02-02T15:57:29;19.15;;;10.65;;
23670;SDS011;12012;51.998;7.614;2023-02-02T16:00:00;16.38;;;11.05;;
23670;SDS011;12012;51.998;7.614;2023-02-02T16:02:46;20.02;;;11.43;;
23670;SDS011;12012;51.998;7.614;2023-02-02T16:08:01;20.70;;;11.50;;
23670;SDS011;12012;51.998;7.614;2023-02-02T16:10:30;19.17;;;12.27;;
23670;SDS011;12012;51.998;7.614;2023-02-02T16:12:55;23.63;;;13.70;;
23670;SDS011;12012;51.998;7.614;2023-02-02T16:15:25;19.95;;;12.70;;
23670;SDS011;12012;51.998;7.614;2023-02-02T16:17:58;24.25;;;13.82;;
23670;SDS011;12012;51.998;7.614;2023-02-02T16:20:30;20.58;;;13.43;;
23670;SDS011;12012;51.998;7.614;2023-02-02T16:22:58;21.92;;;13.48;;
23670;SDS011;12012;51.998;7.614;2023-02-02T16:25:32;19.38;;;13.18;;
23670;SDS011;12012;51.998;7.614;2023-02-02T16:28:01;22.38;;;14.77;;
23670;SDS011;12012;51.998;7.614;2023-02-02T16:32:53;22.17;;;14.85;;
23670;SDS011;12012;51.998;7.614;2023-02-02T16:38:14;24.40;;;15.57;;
23670;SDS011;12012;51.998;7.614;2023-02-02T16:41:05;24.35;;;15.30;;
23670;SDS011;12012;51.998;7.614;2023-02-02T16:43:48;22.73;;;15.35;;
23670;SDS011;12012;51.998;7.614;2023-02-02T16:46:14;23.92;;;15.02;;
23670;SDS011;12012;51.998;7.614;2023-02-02T16:48:58;29.77;;;15.45;;
23670;SDS011;12012;51.998;7.614;2023-02-02T16:51:25;28.15;;;16.02;;
23670;SDS011;12012;51.998;7.614;2023-02-02T16:53:59;25.52;;;17.10;;
23670;SDS011;12012;51.998;7.614;2023-02-02T17:01:50;26.45;;;17.15;;
23670;SDS011;12012;51.998;7.614;2023-02-02T17:04:20;28.38;;;17.95;;
23670;SDS011;12012;51.998;7.614;2023-02-02T17:07:04;33.88;;;18.52;;
23670;SDS011;12012;51.998;7.614;2023-02-02T17:09:36;27.15;;;18.17;;
23670;SDS011;12012;51.998;7.614;2023-02-02T17:14:54;32.58;;;19.42;;
23670;SDS011;12012;51.998;7.614;2023-02-02T17:17:23;33.90;;;19.10;;
23670;SDS011;12012;51.998;7.614;2023-02-02T17:19:49;33.75;;;20.63;;
23670;SDS011;12012;51.998;7.614;2023-02-02T17:22:15;33.08;;;20.40;;
23670;SDS011;12012;51.998;7.614;2023-02-02T17:24:44;39.13;;;21.45;;
23670;SDS011;12012;51.998;7.614;2023-02-02T17:27:12;36.33;;;21.17;;
23670;SDS011;12012;51.998;7.614;2023-02-02T17:29:41;37.45;;;22.00;;
23670;SDS011;12012;51.998;7.614;2023-02-02T17:32:10;37.72;;;21.73;;
23670;SDS011;12012;51.998;7.614;2023-02-02T17:34:37;34.90;;;20.95;;
23670;SDS011;12012;51.998;7.614;2023-02-02T17:37:02;36.15;;;21.83;;
23670;SDS011;12012;51.998;7.614;2023-02-02T17:39:28;38.40;;;22.83;;